createdAt,value
2018-02-22T00:01:10.918Z,59.70
2018-02-22T00:03:38.361Z,59.60
2018-02-22T00:06:05.810Z,59.70
2018-02-22T00:08:34.012Z,59.70
2018-02-22T00:11:01.461Z,59.70
2018-02-22T00:13:28.897Z,59.80
2018-02-22T00:15:56.333Z,59.80
2018-02-22T00:18:23.788Z,59.70
2018-02-22T00:20:51.231Z,59.70
2018-02-22T00:23:18.696Z,59.60
2018-02-22T00:25:46.129Z,59.70
2018-02-22T00:28:13.590Z,59.70
2018-02-22T00:30:41.799Z,59.90
2018-02-22T00:33:09.259Z,59.80
2018-02-22T00:35:36.697Z,60.00
2018-02-22T00:38:04.172Z,60.30
2018-02-22T00:40:31.629Z,60.50
2018-02-22T00:42:59.080Z,60.30
2018-02-22T00:45:27.310Z,60.00
2018-02-22T00:47:54.768Z,60.00
2018-02-22T00:50:22.223Z,60.00
2018-02-22T00:52:49.660Z,60.00
2018-02-22T00:55:17.122Z,60.00
2018-02-22T00:57:44.581Z,60.10
2018-02-22T01:00:12.047Z,60.10
2018-02-22T01:02:39.506Z,60.20
2018-02-22T01:05:06.949Z,60.20
2018-02-22T01:07:35.169Z,60.70
2018-02-22T01:10:02.634Z,60.70
2018-02-22T01:12:30.081Z,60.80
2018-02-22T01:14:57.525Z,60.90
2018-02-22T01:17:24.973Z,61.00
2018-02-22T01:19:53.189Z,61.00
2018-02-22T01:22:20.644Z,61.00
2018-02-22T01:24:48.100Z,60.80
2018-02-22T01:27:15.563Z,60.70
2018-02-22T01:29:43.008Z,60.60
2018-02-22T01:32:11.238Z,60.50
2018-02-22T01:34:38.688Z,60.40
2018-02-22T01:37:06.138Z,60.50
2018-02-22T01:39:33.589Z,60.30
2018-02-22T01:42:01.036Z,60.20
2018-02-22T01:44:29.265Z,60.40
2018-02-22T01:46:56.719Z,60.40
2018-02-22T01:49:24.279Z,60.40
2018-02-22T01:51:51.700Z,60.50
2018-02-22T01:54:19.926Z,60.60
2018-02-22T01:56:47.364Z,60.60
2018-02-22T01:59:14.820Z,60.70
2018-02-22T02:01:42.265Z,60.90
2018-02-22T02:04:10.535Z,61.10
2018-02-22T02:06:37.980Z,61.00
2018-02-22T02:09:05.461Z,61.90
2018-02-22T02:11:32.930Z,61.50
2018-02-22T02:14:00.376Z,61.50
2018-02-22T02:16:27.820Z,61.50
2018-02-22T02:18:55.277Z,61.50
2018-02-22T02:21:22.729Z,61.50
2018-02-22T02:23:50.187Z,61.30
2018-02-22T02:26:17.631Z,61.40
2018-02-22T02:28:45.099Z,61.30
2018-02-22T02:31:12.541Z,61.20
2018-02-22T02:33:40.780Z,61.40
2018-02-22T02:36:08.225Z,61.20
2018-02-22T02:38:35.690Z,61.30
2018-02-22T02:41:03.139Z,61.40
2018-02-22T02:43:30.590Z,61.40
2018-02-22T02:45:58.038Z,61.60
2018-02-22T02:48:25.505Z,61.80
2018-02-22T02:50:52.948Z,61.60
2018-02-22T02:53:21.187Z,61.70
2018-02-22T02:55:48.630Z,62.40
2018-02-22T02:58:16.093Z,61.80
2018-02-22T03:00:43.536Z,61.90
2018-02-22T03:03:10.991Z,62.00
2018-02-22T03:05:39.219Z,62.00
2018-02-22T03:08:06.660Z,61.90
2018-02-22T03:10:34.109Z,62.00
2018-02-22T03:13:01.548Z,61.80
2018-02-22T03:15:29.767Z,61.80
2018-02-22T03:17:57.231Z,61.90
2018-02-22T03:20:24.672Z,61.90
2018-02-22T03:22:52.118Z,61.90
2018-02-22T03:25:20.333Z,62.00
2018-02-22T03:27:47.784Z,62.00
2018-02-22T03:30:15.233Z,62.10
2018-02-22T03:32:42.694Z,62.30
2018-02-22T03:35:10.142Z,62.20
2018-02-22T03:37:38.361Z,62.20
2018-02-22T03:40:05.806Z,62.10
2018-02-22T03:42:33.250Z,62.10
2018-02-22T03:45:01.469Z,62.10
2018-02-22T03:47:28.918Z,62.10
2018-02-22T03:49:56.392Z,62.00
2018-02-22T03:52:23.851Z,62.10
2018-02-22T03:54:51.307Z,62.10
2018-02-22T03:57:18.749Z,62.10
2018-02-22T03:59:46.204Z,62.10
2018-02-22T04:02:14.421Z,61.90
2018-02-22T04:04:41.877Z,61.90
2018-02-22T04:07:09.316Z,61.90
2018-02-22T04:09:36.789Z,62.10
2018-02-22T04:12:04.232Z,62.20
2018-02-22T04:14:32.441Z,62.50
2018-02-22T04:16:59.898Z,62.40
2018-02-22T04:19:27.336Z,62.30
2018-02-22T04:21:55.560Z,62.60
2018-02-22T04:24:23.022Z,62.60
2018-02-22T04:26:50.573Z,62.50
2018-02-22T04:29:18.012Z,62.60
2018-02-22T04:31:45.502Z,62.50
2018-02-22T04:34:12.958Z,62.60
2018-02-22T04:36:40.420Z,62.70
2018-02-22T04:39:07.861Z,62.80
2018-02-22T04:41:35.323Z,62.60
2018-02-22T04:46:37.359Z,62.40
2018-02-22T04:49:04.800Z,62.60
2018-02-22T04:51:32.259Z,62.70
2018-02-22T04:53:59.697Z,62.50
2018-02-22T04:56:27.147Z,63.30
2018-02-22T04:58:55.361Z,62.40
2018-02-22T05:01:22.823Z,62.40
2018-02-22T05:03:50.262Z,62.20
2018-02-22T05:06:18.484Z,62.50
2018-02-22T05:08:46.002Z,62.40
2018-02-22T05:11:14.214Z,62.70
2018-02-22T05:13:41.674Z,62.60
2018-02-22T05:16:09.141Z,62.70
2018-02-22T05:18:36.599Z,62.50
2018-02-22T05:21:04.063Z,62.40
2018-02-22T05:23:31.519Z,62.70
2018-02-22T05:25:58.979Z,62.70
2018-02-22T05:28:26.417Z,62.80
2018-02-22T05:30:54.641Z,62.80
2018-02-22T05:33:22.092Z,62.70
2018-02-22T05:35:49.588Z,62.70
2018-02-22T05:38:16.985Z,62.60
2018-02-22T05:40:45.215Z,62.70
2018-02-22T05:43:13.438Z,62.70
2018-02-22T05:45:41.649Z,62.90
2018-02-22T05:48:09.102Z,62.70
2018-02-22T05:50:36.544Z,62.90
2018-02-22T05:53:04.765Z,62.70
2018-02-22T05:55:32.210Z,62.70
2018-02-22T05:57:59.692Z,62.70
2018-02-22T06:00:27.125Z,62.70
2018-02-22T06:02:54.591Z,62.70
2018-02-22T06:05:22.059Z,63.00
2018-02-22T06:07:49.558Z,63.20
2018-02-22T06:10:16.962Z,62.90
2018-02-22T06:12:45.185Z,63.20
2018-02-22T06:15:12.633Z,63.10
2018-02-22T06:17:40.095Z,63.10
2018-02-22T06:20:07.542Z,63.20
2018-02-22T06:22:34.989Z,63.10
2018-02-22T06:25:03.202Z,63.00
2018-02-22T06:27:30.662Z,62.90
2018-02-22T06:29:58.108Z,62.90
2018-02-22T06:32:25.557Z,62.80
2018-02-22T06:34:53.798Z,63.20
2018-02-22T06:37:22.775Z,63.90
2018-02-22T06:39:50.217Z,63.10
2018-02-22T06:42:17.665Z,63.10
2018-02-22T06:44:45.897Z,63.20
2018-02-22T06:47:13.351Z,63.20
2018-02-22T06:49:40.793Z,63.20
2018-02-22T06:52:08.241Z,63.20
2018-02-22T06:54:35.696Z,63.20
2018-02-22T06:57:03.149Z,63.30
2018-02-22T06:59:31.357Z,63.30
2018-02-22T07:01:58.807Z,63.30
2018-02-22T07:04:26.245Z,63.50
2018-02-22T07:06:54.469Z,63.30
2018-02-22T07:09:21.946Z,63.30
2018-02-22T07:11:49.410Z,63.30
2018-02-22T07:14:16.875Z,63.50
2018-02-22T07:16:44.323Z,63.40
2018-02-22T07:19:11.787Z,63.30
2018-02-22T07:21:39.234Z,63.30
2018-02-22T07:24:06.701Z,63.30
2018-02-22T07:26:34.150Z,63.30
2018-02-22T07:29:01.617Z,63.30
2018-02-22T07:31:29.072Z,63.40
2018-02-22T07:33:56.544Z,63.30
2018-02-22T07:36:23.992Z,63.40
2018-02-22T07:38:51.481Z,63.50
2018-02-22T07:41:18.939Z,63.50
2018-02-22T07:43:46.411Z,63.50
2018-02-22T07:46:13.862Z,63.40
2018-02-22T07:48:41.325Z,63.60
2018-02-22T07:51:08.770Z,63.60
2018-02-22T07:53:36.241Z,63.60
2018-02-22T07:56:03.704Z,63.70
2018-02-22T07:58:31.174Z,63.70
2018-02-22T08:00:58.659Z,63.80
2018-02-22T08:03:26.119Z,63.90
2018-02-22T08:05:53.599Z,63.90
2018-02-22T08:08:21.057Z,64.00
2018-02-22T08:10:48.519Z,64.10
2018-02-22T08:13:15.987Z,64.20
2018-02-22T08:15:43.438Z,64.10
2018-02-22T08:18:10.889Z,64.20
2018-02-22T08:20:38.363Z,64.20
2018-02-22T08:23:05.828Z,64.30
2018-02-22T08:25:34.044Z,64.40
2018-02-22T08:28:02.280Z,64.50
2018-02-22T08:30:29.736Z,64.50
2018-02-22T08:32:57.209Z,64.50
2018-02-22T08:35:24.684Z,64.50
2018-02-22T08:37:52.139Z,64.50
2018-02-22T08:40:19.593Z,64.60
2018-02-22T08:42:47.848Z,64.80
2018-02-22T08:45:15.297Z,65.50
2018-02-22T08:47:42.737Z,64.70
2018-02-22T08:50:10.982Z,64.70
2018-02-22T08:52:38.429Z,64.70
2018-02-22T08:55:05.890Z,64.50
2018-02-22T08:57:33.346Z,64.30
2018-02-22T09:00:00.807Z,64.20
2018-02-22T09:02:28.265Z,64.10
2018-02-22T09:04:55.725Z,64.20
2018-02-22T09:07:23.200Z,64.00
2018-02-22T09:09:50.650Z,63.60
2018-02-22T09:12:18.089Z,63.40
2018-02-22T09:14:45.533Z,63.30
2018-02-22T09:17:13.746Z,62.90
2018-02-22T09:19:41.206Z,62.80
2018-02-22T09:22:08.651Z,62.70
2018-02-22T09:24:36.879Z,62.70
2018-02-22T09:27:04.330Z,62.70
2018-02-22T09:29:31.789Z,62.60
2018-02-22T09:31:59.246Z,62.80
2018-02-22T09:34:26.703Z,62.70
2018-02-22T09:36:54.136Z,63.00
2018-02-22T09:39:22.357Z,63.10
2018-02-22T09:41:49.797Z,63.10
2018-02-22T09:44:17.264Z,63.10
2018-02-22T09:46:44.692Z,63.20
2018-02-22T09:49:12.156Z,62.60
2018-02-22T09:51:40.378Z,62.20
2018-02-22T09:54:07.834Z,62.20
2018-02-22T09:56:35.282Z,62.10
2018-02-22T09:59:02.730Z,62.00
2018-02-22T10:01:30.972Z,61.60
2018-02-22T10:03:58.422Z,61.50
2018-02-22T10:06:26.643Z,61.40
2018-02-22T10:08:54.083Z,61.40
2018-02-22T10:11:21.543Z,61.30
2018-02-22T10:13:48.982Z,61.00
2018-02-22T10:16:16.419Z,60.70
2018-02-22T10:18:43.867Z,60.30
2018-02-22T10:21:12.077Z,59.50
2018-02-22T10:23:39.512Z,59.40
2018-02-22T10:26:07.739Z,59.30
2018-02-22T10:28:35.169Z,59.30
2018-02-22T10:31:02.622Z,59.30
2018-02-22T10:33:30.863Z,58.10
2018-02-22T10:35:58.284Z,58.10
2018-02-22T10:38:25.723Z,58.50
2018-02-22T10:40:53.269Z,58.60
2018-02-22T10:43:21.500Z,58.30
2018-02-22T10:45:48.927Z,58.30
2018-02-22T10:48:17.147Z,58.10
2018-02-22T10:50:44.599Z,58.10
2018-02-22T10:53:12.029Z,58.10
2018-02-22T10:55:40.267Z,57.90
2018-02-22T10:58:07.708Z,57.90
2018-02-22T11:03:40.565Z,58.10
2018-02-22T11:06:08.027Z,58.10
2018-02-22T11:08:36.213Z,57.70
2018-02-22T11:11:03.667Z,57.70
2018-02-22T11:13:31.869Z,57.90
2018-02-22T11:15:59.315Z,57.80
2018-02-22T11:18:26.760Z,57.70
2018-02-22T11:20:54.978Z,57.30
2018-02-22T11:23:22.419Z,57.20
2018-02-22T11:25:50.623Z,57.40
2018-02-22T11:28:18.080Z,57.30
2018-02-22T11:30:45.514Z,57.40
2018-02-22T11:33:13.718Z,57.30
2018-02-22T11:35:41.173Z,57.30
2018-02-22T11:38:08.624Z,56.10
2018-02-22T11:40:36.061Z,56.30
2018-02-22T11:43:04.284Z,55.50
2018-02-22T11:45:31.739Z,55.50
2018-02-22T11:47:59.162Z,55.40
2018-02-22T11:50:26.602Z,55.40
2018-02-22T11:52:54.056Z,54.90
2018-02-22T11:55:21.511Z,55.10
2018-02-22T11:57:48.980Z,55.60
2018-02-22T12:00:16.400Z,54.40
2018-02-22T12:02:43.870Z,53.70
2018-02-22T12:05:11.304Z,54.00
2018-02-22T12:07:39.504Z,52.30
2018-02-22T12:10:06.962Z,52.20
2018-02-22T12:12:35.163Z,53.70
2018-02-22T12:15:02.610Z,53.70
2018-02-22T12:17:30.053Z,53.60
2018-02-22T12:19:58.266Z,52.60
2018-02-22T12:22:25.694Z,52.50
2018-02-22T12:24:53.894Z,52.70
2018-02-22T12:27:21.354Z,52.60
2018-02-22T12:29:48.790Z,52.70
2018-02-22T12:32:16.238Z,52.50
2018-02-22T12:34:43.677Z,52.50
2018-02-22T12:37:11.883Z,52.60
2018-02-22T12:39:39.345Z,52.70
2018-02-22T12:42:06.792Z,51.30
2018-02-22T12:44:34.243Z,51.40
2018-02-22T12:47:01.690Z,50.50
2018-02-22T12:49:29.184Z,49.00
2018-02-22T12:51:56.609Z,50.60
2018-02-22T12:54:24.065Z,50.70
2018-02-22T12:56:51.531Z,50.10
2018-02-22T12:59:18.974Z,50.60
2018-02-22T13:01:47.195Z,50.80
2018-02-22T13:04:14.644Z,50.80
2018-02-22T13:06:42.105Z,50.30
2018-02-22T13:09:09.563Z,49.60
2018-02-22T13:11:37.031Z,50.30
2018-02-22T13:14:04.472Z,50.10
2018-02-22T13:16:31.919Z,50.00
2018-02-22T13:19:00.130Z,50.10
2018-02-22T13:21:27.584Z,50.10
2018-02-22T13:23:55.039Z,49.60
2018-02-22T13:26:22.488Z,49.40
2018-02-22T13:28:50.715Z,49.00
2018-02-22T13:31:18.171Z,49.00
2018-02-22T13:33:57.552Z,49.00
2018-02-22T13:36:25.002Z,47.30
2018-02-22T13:39:04.291Z,48.70
2018-02-22T13:41:31.732Z,48.20
2018-02-22T13:44:10.825Z,47.40
2018-02-22T13:46:38.274Z,45.90
2018-02-22T13:49:17.685Z,47.70
2018-02-22T13:51:45.139Z,47.90
2018-02-22T13:54:12.608Z,47.90
2018-02-22T13:56:52.041Z,47.90
2018-02-22T13:59:19.506Z,48.00
2018-02-22T14:01:58.787Z,47.90
2018-02-22T14:04:27.017Z,47.60
2018-02-22T14:06:54.471Z,47.50
2018-02-22T14:09:21.933Z,47.60
2018-02-22T14:11:49.425Z,47.90
2018-02-22T14:14:16.843Z,47.40
2018-02-22T14:16:44.290Z,47.20
2018-02-22T14:19:12.501Z,47.50
2018-02-22T14:21:39.951Z,47.40
2018-02-22T14:24:07.400Z,47.80
2018-02-22T14:26:35.611Z,47.30
2018-02-22T14:29:03.063Z,47.30
2018-02-22T14:31:30.529Z,47.00
2018-02-22T14:33:57.994Z,46.90
2018-02-22T14:36:25.444Z,46.40
2018-02-22T14:38:52.925Z,46.90
2018-02-22T14:41:20.343Z,46.00
2018-02-22T14:43:48.568Z,46.40
2018-02-22T14:46:16.016Z,46.40
2018-02-22T14:48:43.479Z,46.60
2018-02-22T14:51:10.924Z,46.40
2018-02-22T14:53:39.128Z,46.80
2018-02-22T14:56:06.588Z,46.80
2018-02-22T14:58:34.044Z,46.70
2018-02-22T15:01:07.334Z,46.60
2018-02-22T15:03:34.782Z,45.90
2018-02-22T15:06:02.236Z,46.80
2018-02-22T15:08:30.450Z,46.70
2018-02-22T15:10:57.907Z,46.60
2018-02-22T15:13:25.371Z,46.80
2018-02-22T15:15:52.831Z,47.00
2018-02-22T15:18:20.265Z,47.10
2018-02-22T15:20:48.568Z,47.40
2018-02-22T15:23:15.920Z,47.40
2018-02-22T15:25:43.383Z,47.20
2018-02-22T15:28:10.818Z,46.70
2018-02-22T15:30:39.022Z,47.30
2018-02-22T15:33:06.504Z,47.30
2018-02-22T15:35:33.965Z,47.40
2018-02-22T15:38:01.449Z,47.50
2018-02-22T15:40:28.908Z,47.50
2018-02-22T15:42:56.352Z,47.50
2018-02-22T15:45:23.805Z,47.50
2018-02-22T15:47:51.262Z,47.70
2018-02-22T15:50:18.723Z,47.80
2018-02-22T15:52:46.155Z,47.70
2018-02-22T15:55:13.620Z,47.60
2018-02-22T15:57:41.101Z,47.60
2018-02-22T16:00:09.313Z,47.40
2018-02-22T16:02:36.815Z,47.40
2018-02-22T16:05:04.264Z,47.40
2018-02-22T16:07:32.478Z,47.80
2018-02-22T16:10:00.692Z,47.60
2018-02-22T16:12:28.175Z,47.60
2018-02-22T16:14:55.626Z,47.80
2018-02-22T16:17:23.076Z,47.60
2018-02-22T16:19:51.335Z,48.30
2018-02-22T16:22:18.783Z,48.30
2018-02-22T16:24:47.012Z,49.10
2018-02-22T16:27:15.438Z,48.50
2018-02-22T16:29:42.872Z,48.50
2018-02-22T16:32:11.068Z,48.30
2018-02-22T16:34:38.505Z,48.40
2018-02-22T16:37:05.975Z,48.30
2018-02-22T16:39:34.185Z,48.40
2018-02-22T16:48:04.345Z,48.30
2018-02-22T16:50:31.801Z,48.60
2018-02-22T16:53:00.016Z,48.60
2018-02-22T16:55:27.459Z,48.60
2018-02-22T16:57:54.927Z,48.80
2018-02-22T17:00:22.369Z,48.80
2018-02-22T17:02:49.810Z,48.80
2018-02-22T17:05:17.263Z,48.80
2018-02-22T17:08:00.031Z,48.90
2018-02-22T17:10:27.472Z,49.00
2018-02-22T17:12:54.904Z,49.10
2018-02-22T17:15:22.372Z,49.00
2018-02-22T17:17:49.825Z,49.00
2018-02-22T17:20:17.285Z,48.80
2018-02-22T17:22:44.735Z,48.90
2018-02-22T17:25:12.198Z,48.90
2018-02-22T17:27:45.368Z,49.00
2018-02-22T17:30:18.553Z,48.50
2018-02-22T17:32:46.028Z,48.70
2018-02-22T17:35:14.419Z,48.60
2018-02-22T17:37:42.839Z,48.60
2018-02-22T17:40:14.735Z,48.70
2018-02-22T17:42:57.791Z,48.40
2018-02-22T17:45:25.247Z,48.80
2018-02-22T17:47:52.711Z,48.90
2018-02-22T17:50:20.161Z,49.10
2018-02-22T17:52:47.615Z,49.10
2018-02-22T17:55:20.897Z,49.00
2018-02-22T17:57:48.365Z,49.00
2018-02-22T18:00:15.860Z,49.20
2018-02-22T18:02:43.311Z,49.20
2018-02-22T18:05:10.752Z,49.30
2018-02-22T18:07:38.198Z,49.40
2018-02-22T18:10:05.640Z,49.40
2018-02-22T18:12:33.873Z,49.40
2018-02-22T18:15:01.320Z,49.40
2018-02-22T18:17:28.771Z,49.20
2018-02-22T18:19:56.227Z,49.20
2018-02-22T18:22:23.701Z,49.20
2018-02-22T18:24:51.154Z,49.30
2018-02-22T18:27:18.603Z,49.50
2018-02-22T18:29:46.860Z,49.50
2018-02-22T18:32:14.276Z,49.50
2018-02-22T18:34:41.719Z,49.30
2018-02-22T18:37:14.822Z,49.50
2018-02-22T18:39:42.264Z,49.70
2018-02-22T18:42:16.046Z,49.90
2018-02-22T18:44:49.307Z,49.90
2018-02-22T18:47:16.773Z,49.90
2018-02-22T18:49:44.220Z,49.90
2018-02-22T18:52:11.661Z,49.50
2018-02-22T18:54:39.111Z,49.80
2018-02-22T18:57:09.331Z,49.80
2018-02-22T18:59:37.560Z,49.80
2018-02-22T19:02:05.048Z,49.70
2018-02-22T19:04:32.483Z,49.60
2018-02-22T19:06:59.943Z,49.50
2018-02-22T19:09:27.384Z,49.50
2018-02-22T19:11:54.839Z,49.50
2018-02-22T19:14:22.291Z,49.50
2018-02-22T19:16:50.519Z,49.70
2018-02-22T19:19:18.740Z,49.90
2018-02-22T19:21:46.966Z,49.80
2018-02-22T19:24:14.415Z,49.80
2018-02-22T19:26:41.855Z,49.70
2018-02-22T19:29:09.315Z,49.70
2018-02-22T19:31:37.552Z,49.70
2018-02-22T19:34:05.036Z,49.70
2018-02-22T19:36:32.455Z,49.90
2018-02-22T19:38:59.914Z,50.00
2018-02-22T19:41:27.368Z,49.80
2018-02-22T19:43:54.815Z,50.60
2018-02-22T19:46:22.268Z,49.90
2018-02-22T19:48:49.727Z,49.90
2018-02-22T19:51:17.939Z,50.00
2018-02-22T19:53:45.403Z,50.00
2018-02-22T19:56:12.849Z,50.10
2018-02-22T19:58:40.318Z,50.10
2018-02-22T20:01:07.759Z,50.00
2018-02-22T20:03:35.975Z,50.20
2018-02-22T20:06:03.435Z,50.20
2018-02-22T20:08:30.888Z,50.20
2018-02-22T20:10:59.248Z,50.20
2018-02-22T20:13:27.458Z,50.40
2018-02-22T20:15:54.913Z,51.00
2018-02-22T20:18:22.362Z,50.40
2018-02-22T20:20:49.811Z,50.40
2018-02-22T20:23:18.057Z,50.50
2018-02-22T20:25:45.513Z,50.50
2018-02-22T20:28:12.967Z,50.60
2018-02-22T20:30:40.423Z,50.80
2018-02-22T20:33:07.861Z,50.90
2018-02-22T20:35:35.298Z,51.00
2018-02-22T20:38:03.557Z,51.60
2018-02-22T20:40:30.996Z,51.00
2018-02-22T20:42:58.453Z,51.00
2018-02-22T20:45:25.896Z,51.10
2018-02-22T20:47:53.359Z,51.00
2018-02-22T20:50:20.838Z,51.20
2018-02-22T20:55:50.778Z,51.20
2018-02-22T20:58:18.265Z,51.50
2018-02-22T21:00:45.718Z,51.60
2018-02-22T21:03:15.711Z,51.60
2018-02-22T21:05:43.171Z,52.00
2018-02-22T21:08:10.609Z,51.90
2018-02-22T21:10:38.064Z,52.00
2018-02-22T21:13:05.510Z,51.90
2018-02-22T21:15:42.567Z,51.90
2018-02-22T21:18:10.026Z,52.10
2018-02-22T21:20:37.497Z,52.10
2018-02-22T21:23:05.704Z,52.70
2018-02-22T21:25:33.156Z,52.10
2018-02-22T21:28:04.148Z,52.20
2018-02-22T21:30:31.592Z,52.20
2018-02-22T21:33:06.998Z,52.20
2018-02-22T21:35:58.795Z,52.20
2018-02-22T21:38:37.522Z,52.20
2018-02-22T21:41:21.620Z,52.20
2018-02-22T21:43:55.115Z,52.20
2018-02-22T21:46:22.753Z,52.10
2018-02-22T21:48:53.242Z,52.30
2018-02-22T21:51:21.745Z,52.40
2018-02-22T21:53:56.098Z,52.50
2018-02-22T21:56:28.782Z,52.60
2018-02-22T21:58:59.616Z,52.60
2018-02-22T22:07:09.855Z,52.90
2018-02-22T22:09:41.913Z,53.10
2018-02-22T22:14:44.870Z,53.30
2018-02-22T22:17:16.718Z,53.10
2018-02-22T22:19:49.100Z,53.40
2018-02-22T22:22:21.398Z,53.70
2018-02-22T22:24:52.116Z,53.60
2018-02-22T22:29:58.814Z,53.90
2018-02-22T22:32:26.424Z,53.90
2018-02-22T22:34:54.073Z,53.90
2018-02-22T22:37:21.711Z,53.90
2018-02-22T22:39:49.210Z,53.80
2018-02-22T22:42:16.820Z,53.90
2018-02-22T22:44:45.169Z,53.90
2018-02-22T22:47:13.015Z,53.80
2018-02-22T22:49:41.344Z,53.90
2018-02-22T22:52:09.067Z,53.90
2018-02-22T22:54:36.689Z,53.50
2018-02-22T22:57:05.178Z,54.20
2018-02-22T22:59:32.791Z,54.10
2018-02-22T23:02:00.350Z,54.60
2018-02-22T23:04:27.870Z,54.10
2018-02-22T23:06:58.830Z,54.10
2018-02-22T23:09:32.323Z,54.10
2018-02-22T23:12:03.194Z,54.10
2018-02-22T23:17:16.676Z,54.70
2018-02-22T23:19:48.444Z,54.70
2018-02-22T23:22:19.036Z,54.70
2018-02-22T23:24:52.928Z,54.60
2018-02-22T23:27:27.059Z,54.70
2018-02-22T23:29:55.966Z,54.50
2018-02-22T23:32:28.070Z,54.50
2018-02-22T23:34:59.214Z,54.60
2018-02-22T23:37:30.499Z,54.50
2018-02-22T23:40:01.850Z,54.60
2018-02-22T23:42:43.558Z,54.60
2018-02-22T23:45:17.785Z,54.60
2018-02-22T23:47:52.466Z,54.50
2018-02-22T23:50:23.015Z,54.50
2018-02-22T23:52:58.403Z,54.60
2018-02-22T23:55:30.398Z,54.60
2018-02-22T23:58:01.501Z,54.70
